Time;durP1;ratioP1;P1;durP2;ratioP2;P2;SDS_P1;SDS_P2;PMS_P1;PMS_P2;Temp;Humidity;BMP_temperature;BMP_pressure;BME280_temperature;BME280_humidity;BME280_pressure;Samples;Min_cycle;Max_cycle;Signal;HPM_P1;HPM_P2
2022/04/01 00:00:42;;;;;;;2.20;1.45;;;;;;;-0.35;100.00;101905.16;5067186;28;20031;-75
2022/04/01 00:03:09;;;;;;;3.42;1.52;;;;;;;-0.32;100.00;101913.81;5030101;28;20033;-75
2022/04/01 00:05:35;;;;;;;3.38;1.30;;;;;;;-0.34;100.00;101912.19;5053816;28;20398;-75
2022/04/01 00:08:06;;;;;;;5.13;2.58;;;;;;;-0.44;100.00;101911.78;5034683;28;20643;-75
2022/04/01 00:10:32;;;;;;;2.85;1.40;;;;;;;-0.54;100.00;101914.00;5064997;28;20060;-75
2022/04/01 00:12:58;;;;;;;5.63;3.00;;;;;;;-0.52;100.00;101925.34;5050860;28;20028;-75
2022/04/01 00:15:24;;;;;;;3.08;1.42;;;;;;;-0.68;100.00;101919.97;5035663;28;20385;-75
2022/04/01 00:17:50;;;;;;;4.32;1.77;;;;;;;-0.69;100.00;101923.56;5034779;28;20029;-75
2022/04/01 00:20:18;;;;;;;6.03;3.13;;;;;;;-0.74;100.00;101920.28;5050735;28;20028;-74
2022/04/01 00:22:44;;;;;;;2.45;1.90;;;;;;;-0.85;100.00;101904.06;5033463;28;20040;-75
2022/04/01 00:25:10;;;;;;;4.05;2.95;;;;;;;-0.76;100.00;101911.56;5058803;28;20449;-75
2022/04/01 00:27:35;;;;;;;4.70;2.63;;;;;;;-0.68;100.00;101922.63;5042969;28;20490;-75
2022/04/01 00:30:02;;;;;;;2.80;2.15;;;;;;;-0.77;100.00;101919.56;5070731;28;20036;-75
2022/04/01 00:32:29;;;;;;;3.65;2.15;;;;;;;-0.71;100.00;101924.56;5044768;28;20480;-75
2022/04/01 00:34:55;;;;;;;2.75;1.95;;;;;;;-0.72;100.00;101928.97;5060673;28;20623;-76
2022/04/01 00:37:20;;;;;;;5.45;2.25;;;;;;;-0.75;100.00;101925.63;5064038;28;20040;-75
2022/04/01 00:39:46;;;;;;;2.63;1.70;;;;;;;-0.82;100.00;101929.47;5033650;28;20071;-74
2022/04/01 00:42:12;;;;;;;3.22;2.05;;;;;;;-0.94;100.00;101925.66;5066245;28;20082;-75
2022/04/01 00:44:39;;;;;;;2.20;1.60;;;;;;;-1.05;100.00;101925.31;5032483;28;20059;-75
2022/04/01 00:47:10;;;;;;;5.78;2.60;;;;;;;-1.13;100.00;101921.25;5054047;28;20036;-75
2022/04/01 00:49:36;;;;;;;2.92;2.15;;;;;;;-1.30;100.00;101888.66;5058866;28;20494;-74
2022/04/01 00:52:05;;;;;;;3.83;2.08;;;;;;;-1.20;100.00;101918.97;5048215;28;20479;-75
2022/04/01 00:54:30;;;;;;;1.88;1.70;;;;;;;-1.29;100.00;101895.66;5081121;28;20118;-75
2022/04/01 00:56:56;;;;;;;4.57;2.17;;;;;;;-1.14;100.00;101923.94;5066540;28;20024;-75
2022/04/01 00:59:22;;;;;;;2.05;1.52;;;;;;;-1.47;100.00;101870.97;5058971;28;20077;-75
2022/04/01 01:01:49;;;;;;;5.50;2.28;;;;;;;-1.24;100.00;101923.53;5060864;28;20037;-76
2022/04/01 01:04:17;;;;;;;2.15;1.27;;;;;;;-1.24;100.00;101925.31;5065488;28;20122;-75
2022/04/01 01:06:45;;;;;;;2.47;1.70;;;;;;;-1.27;100.00;101922.78;5031640;28;20052;-75
2022/04/01 01:09:11;;;;;;;6.25;2.92;;;;;;;-1.18;100.00;101927.66;5065413;28;20027;-74
2022/04/01 01:11:38;;;;;;;5.32;2.88;;;;;;;-1.10;100.00;101930.81;5044179;28;20037;-75
2022/04/01 01:14:05;;;;;;;5.18;3.30;;;;;;;-1.11;100.00;101922.03;5065127;28;20056;-75
2022/04/01 01:16:31;;;;;;;10.38;4.93;;;;;;;-1.16;100.00;101928.47;5060782;28;20033;-75
2022/04/01 01:19:04;;;;;;;14.50;7.00;;;;;;;-1.19;100.00;101928.56;5083009;28;20028;-76
2022/04/01 01:21:31;;;;;;;16.48;7.10;;;;;;;-1.15;100.00;101922.25;5044932;28;20096;-75
2022/04/01 01:24:03;;;;;;;18.00;7.68;;;;;;;-1.24;100.00;101904.22;5051962;28;20348;-75
2022/04/01 01:26:30;;;;;;;15.60;10.25;;;;;;;-1.14;100.00;101908.97;5048900;28;20059;-75
2022/04/01 01:28:56;;;;;;;14.63;8.98;;;;;;;-1.04;100.00;101912.03;5064633;28;20032;-75
2022/04/01 01:31:25;;;;;;;12.13;6.75;;;;;;;-0.96;100.00;101912.50;5034814;28;20059;-75
2022/04/01 01:33:53;;;;;;;19.52;12.85;;;;;;;-0.80;100.00;101920.56;5025391;28;20063;-75
2022/04/01 01:36:20;;;;;;;19.10;9.75;;;;;;;-0.76;100.00;101924.78;5061517;28;20033;-75
2022/04/01 01:38:45;;;;;;;11.32;5.57;;;;;;;-0.85;100.00;101913.78;5033715;28;20032;-75
2022/04/01 01:41:11;;;;;;;10.43;5.88;;;;;;;-0.92;100.00;101924.66;5037125;28;20044;-75
2022/04/01 01:43:38;;;;;;;6.75;4.70;;;;;;;-1.13;100.00;101915.13;5063796;28;20109;-74
2022/04/01 01:46:04;;;;;;;6.45;4.43;;;;;;;-1.05;100.00;101942.00;5063123;28;20541;-75
2022/04/01 01:48:29;;;;;;;6.18;3.55;;;;;;;-1.03;100.00;101940.16;5060431;28;20029;-75
2022/04/01 01:56:23;;;;;;;8.93;4.07;;;;;;;-1.72;100.00;101931.88;5047223;28;20035;-76
2022/04/01 01:58:49;;;;;;;11.30;5.35;;;;;;;-1.87;100.00;101930.78;5066008;28;20033;-75
2022/04/01 02:01:15;;;;;;;9.68;4.50;;;;;;;-2.12;100.00;101936.22;5058445;28;20064;-76
2022/04/01 02:03:41;;;;;;;11.57;5.63;;;;;;;-2.42;100.00;101941.88;5044740;28;20041;-76
2022/04/01 02:06:07;;;;;;;8.95;4.50;;;;;;;-2.60;100.00;101951.38;5047083;28;20044;-76
2022/04/01 02:08:36;;;;;;;11.75;5.85;;;;;;;-2.86;100.00;101933.97;5062973;28;20036;-76
2022/04/01 02:11:02;;;;;;;9.10;4.50;;;;;;;-3.17;100.00;101918.56;5064058;28;20040;-76
2022/04/01 02:13:29;;;;;;;8.32;4.60;;;;;;;-3.00;100.00;101946.84;5060025;28;20069;-75
2022/04/01 02:15:55;;;;;;;6.65;3.72;;;;;;;-3.00;100.00;101946.84;5065222;28;20060;-76
2022/04/01 02:18:21;;;;;;;11.25;4.68;;;;;;;-2.92;100.00;101942.13;5063503;28;20659;-75
2022/04/01 02:20:48;;;;;;;11.20;4.10;;;;;;;-2.87;100.00;101943.66;5035344;28;20032;-75
2022/04/01 02:23:14;;;;;;;6.80;4.13;;;;;;;-2.96;100.00;101915.09;5044920;28;21222;-75
2022/04/01 02:25:42;;;;;;;6.15;2.42;;;;;;;-2.75;100.00;101931.81;5056436;28;20032;-76
2022/04/01 02:28:09;;;;;;;5.68;3.22;;;;;;;-2.60;100.00;101940.00;5033319;28;20489;-76
2022/04/01 02:30:35;;;;;;;4.78;2.50;;;;;;;-2.46;100.00;101938.53;5048386;28;20458;-75
2022/04/01 02:33:02;;;;;;;4.97;2.90;;;;;;;-2.33;100.00;101935.34;5045472;28;20578;-75
2022/04/01 02:35:28;;;;;;;6.03;2.30;;;;;;;-2.26;100.00;101932.41;5045825;28;20074;-75
2022/04/01 02:37:54;;;;;;;6.47;2.38;;;;;;;-2.09;100.00;101936.97;5066145;28;20024;-76
2022/04/01 02:40:20;;;;;;;2.63;1.77;;;;;;;-1.92;100.00;101936.25;5068377;28;20083;-75
2022/04/01 02:42:46;;;;;;;4.05;2.53;;;;;;;-1.76;100.00;101928.53;5065265;28;20056;-76
2022/04/01 02:45:13;;;;;;;3.85;1.95;;;;;;;-1.68;100.00;101936.09;5061177;28;20480;-75
2022/04/01 02:47:39;;;;;;;4.50;2.45;;;;;;;-1.68;100.00;101928.19;5052195;28;20032;-75
2022/04/01 02:50:05;;;;;;;5.03;3.42;;;;;;;-1.54;100.00;101938.97;5067269;28;20063;-75
2022/04/01 02:52:31;;;;;;;4.82;2.33;;;;;;;-1.50;100.00;101922.09;5069281;28;20047;-75
2022/04/01 02:54:57;;;;;;;12.25;4.13;;;;;;;-1.26;100.00;101958.84;5068464;28;20033;-75
2022/04/01 02:57:22;;;;;;;3.78;2.55;;;;;;;-1.25;100.00;101955.25;5028360;28;20397;-75
2022/04/01 02:59:48;;;;;;;7.47;4.63;;;;;;;-1.04;100.00;101948.13;5037113;28;20306;-75
2022/04/01 03:02:15;;;;;;;5.03;3.30;;;;;;;-0.94;100.00;101949.41;5033110;28;20064;-75
2022/04/01 03:04:41;;;;;;;5.53;2.63;;;;;;;-0.94;100.00;101936.22;5067283;28;20465;-75
2022/04/01 03:07:06;;;;;;;27.90;3.53;;;;;;;-0.77;100.00;101933.59;5052379;28;20047;-75
2022/04/01 03:09:33;;;;;;;4.78;2.65;;;;;;;-0.76;100.00;101927.41;5070302;28;20036;-75
2022/04/01 03:12:00;;;;;;;2.33;2.03;;;;;;;-0.71;100.00;101932.47;5063718;28;20079;-75
2022/04/01 03:14:26;;;;;;;5.03;2.65;;;;;;;-0.68;100.00;101943.75;5034094;28;20515;-74
2022/04/01 03:16:52;;;;;;;3.00;2.08;;;;;;;-0.77;100.00;101945.97;5047618;28;20040;-76
2022/04/01 03:19:18;;;;;;;2.75;1.48;;;;;;;-0.85;100.00;101940.19;5037342;28;20032;-75
2022/04/01 03:21:45;;;;;;;4.03;2.30;;;;;;;-0.88;100.00;101943.84;5051636;28;20040;-75
2022/04/01 03:24:10;;;;;;;3.45;1.60;;;;;;;-0.98;100.00;101943.44;5031637;28;20032;-75
2022/04/01 03:26:39;;;;;;;6.70;2.88;;;;;;;-1.09;100.00;101937.78;5068719;28;20381;-75
2022/04/01 03:29:10;;;;;;;4.90;2.42;;;;;;;-1.12;100.00;101935.28;5069126;28;20047;-75
2022/04/01 03:31:37;;;;;;;6.10;3.08;;;;;;;-1.16;100.00;101939.00;5048722;28;20036;-75
2022/04/01 03:34:05;;;;;;;6.90;3.20;;;;;;;-1.31;100.00;101908.91;5061663;28;20038;-75
2022/04/01 03:36:32;;;;;;;4.20;2.65;;;;;;;-1.19;100.00;101940.00;5044873;28;20032;-75
2022/04/01 03:38:58;;;;;;;5.28;2.28;;;;;;;-1.30;100.00;101921.16;5066398;28;20032;-75
2022/04/01 03:41:23;;;;;;;6.70;3.47;;;;;;;-1.12;100.00;101945.84;5067847;28;20035;-75
2022/04/01 03:43:51;;;;;;;6.78;2.55;;;;;;;-1.13;100.00;101939.72;5036124;28;20039;-75
2022/04/01 03:46:19;;;;;;;5.68;2.97;;;;;;;-1.16;100.00;101946.94;5061338;28;20109;-74
2022/04/01 03:48:49;;;;;;;4.03;2.15;;;;;;;-1.17;100.00;101956.59;5031994;28;20844;-75
2022/04/01 03:51:19;;;;;;;4.78;2.20;;;;;;;-1.21;100.00;101947.13;5034546;28;20048;-74
2022/04/01 03:53:57;;;;;;;5.75;3.00;;;;;;;-1.21;100.00;101952.41;5032994;28;20044;-75
2022/04/01 03:56:29;;;;;;;5.82;3.15;;;;;;;-1.16;100.00;101953.06;5043208;28;20090;-74
2022/04/01 03:59:03;;;;;;;5.05;2.40;;;;;;;-1.19;100.00;101940.00;5031358;28;20031;-75
2022/04/01 04:01:29;;;;;;;7.93;2.55;;;;;;;-1.16;100.00;101955.69;5067487;28;20036;-76
2022/04/01 04:03:56;;;;;;;4.03;2.10;;;;;;;-1.26;100.00;101953.56;5061375;28;20037;-76
2022/04/01 04:06:22;;;;;;;6.13;3.08;;;;;;;-1.39;100.00;101940.06;5061925;28;20041;-75
2022/04/01 04:08:50;;;;;;;4.78;1.88;;;;;;;-1.24;100.00;101959.63;5051337;28;20029;-75
2022/04/01 04:11:18;;;;;;;3.60;2.22;;;;;;;-1.33;100.00;101956.44;5082101;28;20120;-74
2022/04/01 04:13:45;;;;;;;2.78;1.80;;;;;;;-1.31;100.00;101966.09;5050060;28;20040;-74
2022/04/01 04:16:19;;;;;;;10.95;2.47;;;;;;;-1.35;100.00;101971.53;5056212;28;20029;-75
2022/04/01 04:18:48;;;;;;;12.82;3.92;;;;;;;-1.51;100.00;101966.97;5065827;28;20040;-74
2022/04/01 04:21:24;;;;;;;5.00;1.60;;;;;;;-1.52;100.00;101970.56;5050092;28;20047;-74
2022/04/01 04:24:03;;;;;;;2.45;1.95;;;;;;;-1.55;100.00;101976.81;5061617;28;20043;-75
2022/04/01 04:26:35;;;;;;;4.93;2.50;;;;;;;-1.64;100.00;101971.94;5058822;28;20033;-74
2022/04/01 04:29:08;;;;;;;4.03;1.20;;;;;;;-1.59;100.00;101988.41;5064555;28;20474;-76
2022/04/01 04:31:34;;;;;;;3.92;2.03;;;;;;;-1.61;100.00;101977.97;5078433;28;20032;-75
2022/04/01 04:34:03;;;;;;;1.48;1.15;;;;;;;-1.60;100.00;101990.19;5049732;28;20046;-76
2022/04/01 04:36:41;;;;;;;7.88;2.20;;;;;;;-1.65;100.00;101981.63;5032095;28;20033;-75
2022/04/01 04:39:15;;;;;;;4.38;2.15;;;;;;;-1.66;100.00;101987.00;5046980;28;20037;-74
2022/04/01 04:41:41;;;;;;;3.00;1.92;;;;;;;-1.63;100.00;101984.22;5069028;28;20063;-75
2022/04/01 04:44:09;;;;;;;4.97;2.35;;;;;;;-1.66;100.00;101993.13;5067243;28;20054;-75
2022/04/01 04:46:35;;;;;;;1.58;1.40;;;;;;;-1.69;100.00;101989.75;5047290;28;20094;-75
2022/04/01 04:49:01;;;;;;;6.15;2.53;;;;;;;-1.71;100.00;101981.91;5062291;28;20718;-75
2022/04/01 04:51:28;;;;;;;3.22;1.98;;;;;;;-1.71;100.00;101983.69;5044356;28;20104;-75
2022/04/01 04:53:59;;;;;;;7.75;2.70;;;;;;;-1.83;100.00;101970.09;5025113;28;20090;-75
2022/04/01 04:56:26;;;;;;;4.07;2.38;;;;;;;-1.75;100.00;101992.66;5057210;28;20033;-75
2022/04/01 04:58:54;;;;;;;9.32;3.72;;;;;;;-1.82;100.00;101969.19;5059373;28;20456;-75
2022/04/01 05:01:24;;;;;;;5.53;2.35;;;;;;;-1.64;100.00;101987.75;5062241;28;20127;-75
2022/04/01 05:04:13;;;;;;;2.97;1.83;;;;;;;-1.47;100.00;101992.31;5065330;28;20123;-75
2022/04/01 05:06:53;;;;;;;5.05;1.75;;;;;;;-1.43;100.00;101984.22;5027896;28;20511;-74
2022/04/01 05:09:40;;;;;;;5.50;2.58;;;;;;;-1.29;100.00;101990.66;5029430;28;20124;-74
2022/04/01 05:12:16;;;;;;;4.13;2.38;;;;;;;-1.40;100.00;101991.97;5059655;28;20124;-76
2022/04/01 05:15:02;;;;;;;3.45;2.20;;;;;;;-1.48;100.00;101987.94;5049324;28;20036;-74
2022/04/01 05:17:35;;;;;;;4.30;2.13;;;;;;;-1.54;100.00;101991.72;5066197;28;20040;-75
2022/04/01 05:20:11;;;;;;;9.47;2.93;;;;;;;-1.63;100.00;102002.69;5045105;28;20051;-75
2022/04/01 05:23:01;;;;;;;5.80;2.30;;;;;;;-1.66;100.00;102008.09;5064675;28;20033;-75
2022/04/01 05:25:30;;;;;;;4.88;2.80;;;;;;;-1.87;100.00;101981.72;5064958;28;20103;-75
2022/04/01 05:28:02;;;;;;;9.77;2.30;;;;;;;-1.84;100.00;102004.47;5029895;28;20384;-75
2022/04/01 05:30:29;;;;;;;6.32;2.38;;;;;;;-1.81;100.00;101999.06;5030649;28;20409;-73
2022/04/01 05:33:06;;;;;;;5.13;2.38;;;;;;;-1.87;100.00;102007.22;5049365;28;20060;-74
2022/04/01 05:35:37;;;;;;;8.80;3.42;;;;;;;-1.78;100.00;102002.41;5046874;28;20037;-76
2022/04/01 05:38:04;;;;;;;6.95;3.28;;;;;;;-1.77;100.00;101993.59;5046299;28;20567;-77
2022/04/01 05:40:31;;;;;;;6.88;3.78;;;;;;;-1.61;100.00;102009.59;5062564;28;20028;-73
2022/04/01 05:42:57;;;;;;;9.68;3.05;;;;;;;-1.60;100.00;102008.66;5064910;28;20036;-74
2022/04/01 05:45:27;;;;;;;5.47;2.30;;;;;;;-1.42;100.00;102001.72;5062730;28;20482;-76
2022/04/01 05:47:54;;;;;;;6.65;2.38;;;;;;;-1.43;100.00;102020.25;5032242;28;20402;-76
2022/04/01 05:50:21;;;;;;;3.38;1.60;;;;;;;-1.50;100.00;102014.41;5045004;28;20489;-75
2022/04/01 05:52:48;;;;;;;10.38;2.80;;;;;;;-1.47;100.00;102018.69;5064869;28;20592;-74
2022/04/01 05:55:23;;;;;;;9.23;3.70;;;;;;;-1.34;100.00;102023.34;5047893;28;20422;-75
2022/04/01 05:57:49;;;;;;;4.25;2.08;;;;;;;-1.27;100.00;102026.59;5063263;28;20029;-75
2022/04/01 06:00:15;;;;;;;4.32;1.67;;;;;;;-1.20;100.00;102019.25;5029124;28;20028;-75
2022/04/01 06:03:08;;;;;;;10.60;3.72;;;;;;;-1.17;100.00;102027.00;5054836;28;20099;-74
2022/04/01 06:05:52;;;;;;;7.90;2.97;;;;;;;-1.16;100.00;102026.13;5056939;28;20075;-74
2022/04/01 06:08:55;;;;;;;5.57;2.25;;;;;;;-1.15;100.00;102035.72;5056745;28;20032;-75
2022/04/01 06:11:29;;;;;;;9.00;3.33;;;;;;;-1.15;100.00;102027.81;5062395;28;20033;-75
2022/04/01 06:14:22;;;;;;;21.75;2.35;;;;;;;-1.03;100.00;102035.19;5065223;28;20071;-75
2022/04/01 06:16:49;;;;;;;;;;;;;;;-0.92;100.00;102032.91;5057653;28;20032;-73
2022/04/01 06:19:22;;;;;;;10.00;3.78;;;;;;;-0.88;100.00;102033.59;5072742;28;19960;-75
2022/04/01 06:21:49;;;;;;;;;;;;;;;-0.86;100.00;102026.47;5054042;28;20563;-76
2022/04/01 06:24:47;;;;;;;11.23;2.97;;;;;;;-0.98;100.00;102017.34;5052802;28;20015;-75
2022/04/01 06:27:19;;;;;;;4.65;2.45;;;;;;;-0.86;100.00;102026.47;5040168;28;20052;-75
2022/04/01 06:29:56;;;;;;;5.20;1.77;;;;;;;-0.81;100.00;102042.13;5039992;28;20063;-75
2022/04/01 06:32:57;;;;;;;7.22;2.55;;;;;;;-0.76;100.00;102053.34;5055471;28;20123;-75
2022/04/01 06:35:30;;;;;;;3.60;1.88;;;;;;;-0.73;100.00;102048.75;5033966;28;20032;-75
2022/04/01 06:38:00;;;;;;;;;;;;;;;-0.52;100.00;102051.31;5049526;28;20067;-75
2022/04/01 06:40:47;;;;;;;9.50;2.85;;;;;;;-0.18;100.00;102039.13;5081274;28;20372;-75
2022/04/01 06:43:13;;;;;;;6.28;2.22;;;;;;;-0.05;100.00;102054.31;5066062;28;20051;-75
2022/04/01 06:45:40;;;;;;;4.53;2.17;;;;;;;0.33;100.00;102043.59;5060685;28;20029;-75
2022/04/01 06:48:06;;;;;;;10.13;2.80;;;;;;;0.67;100.00;102052.44;5063444;28;20028;-75
2022/04/01 06:50:32;;;;;;;6.50;2.50;;;;;;;0.76;100.00;102046.66;5047742;28;20056;-75
2022/04/01 06:52:58;;;;;;;5.68;2.00;;;;;;;0.83;99.35;102045.41;5062586;28;20401;-74
2022/04/01 06:55:24;;;;;;;9.73;2.90;;;;;;;1.13;97.93;102057.94;5050001;28;20078;-75
2022/04/01 06:57:52;;;;;;;7.07;2.40;;;;;;;1.36;96.66;102058.50;5033692;28;20032;-75
2022/04/01 07:00:19;;;;;;;4.55;2.42;;;;;;;1.50;95.56;102061.22;5031153;28;20041;-75
2022/04/01 07:02:45;;;;;;;15.88;3.20;;;;;;;1.47;95.36;102072.00;5062545;28;20024;-75
2022/04/01 07:05:11;;;;;;;12.00;3.25;;;;;;;1.41;95.49;102061.75;5065046;28;20028;-75
2022/04/01 07:07:41;;;;;;;5.97;2.45;;;;;;;1.46;95.34;102067.66;5073978;28;20036;-75
2022/04/01 07:10:09;;;;;;;11.73;3.47;;;;;;;1.46;95.23;102076.47;5043221;28;20489;-75
2022/04/01 07:12:35;;;;;;;12.20;3.05;;;;;;;1.39;95.04;102079.53;5045559;28;20095;-75
2022/04/01 07:15:01;;;;;;;8.07;3.00;;;;;;;1.42;94.40;102068.75;5049138;28;20055;-75
2022/04/01 07:17:27;;;;;;;6.90;2.80;;;;;;;1.79;93.53;102077.31;5046862;28;20040;-75
2022/04/01 07:19:52;;;;;;;9.57;2.67;;;;;;;2.11;93.08;102081.63;5061291;28;20229;-75
2022/04/01 07:22:18;;;;;;;10.52;4.07;;;;;;;2.41;91.94;102075.50;5065563;28;20068;-75
2022/04/01 07:24:44;;;;;;;3.78;2.47;;;;;;;2.81;90.92;102083.72;5056834;28;20033;-75
2022/04/01 07:27:11;;;;;;;6.25;2.38;;;;;;;3.56;88.00;102083.50;5036516;28;20048;-76
2022/04/01 07:29:37;;;;;;;15.18;3.60;;;;;;;4.56;83.68;102085.78;5034746;28;20094;-75
2022/04/01 07:34:48;;;;;;;5.35;2.25;;;;;;;6.89;74.17;102071.50;5078688;28;20074;-76
2022/04/01 07:37:14;;;;;;;12.05;3.13;;;;;;;7.93;68.57;102079.19;5068499;28;20385;-75
2022/04/01 07:39:40;;;;;;;5.43;2.33;;;;;;;8.19;65.80;102089.59;5040980;28;20029;-77
2022/04/01 07:42:06;;;;;;;9.88;2.30;;;;;;;8.95;63.30;102097.50;5066310;28;20107;-75
2022/04/01 07:44:32;;;;;;;13.27;5.05;;;;;;;9.38;58.56;102091.91;5052195;28;20048;-75
2022/04/01 07:46:59;;;;;;;15.20;5.60;;;;;;;9.44;57.82;102085.16;5063008;28;20036;-77
2022/04/01 07:49:25;;;;;;;17.33;5.60;;;;;;;9.83;56.76;102102.22;5064334;28;20060;-75
2022/04/01 07:51:51;;;;;;;17.15;4.68;;;;;;;9.92;54.98;102100.53;5039724;28;20060;-76
2022/04/01 07:54:17;;;;;;;15.52;4.60;;;;;;;9.97;54.30;102103.66;5065217;28;20036;-77
2022/04/01 07:56:43;;;;;;;20.30;6.00;;;;;;;10.32;54.08;102105.03;5049018;28;20493;-77
2022/04/01 07:59:10;;;;;;;13.20;6.57;;;;;;;10.76;52.79;102094.66;5060618;28;20029;-76
2022/04/01 08:01:37;;;;;;;12.80;6.60;;;;;;;11.00;51.07;102094.16;5060677;28;20034;-77
2022/04/01 08:04:03;;;;;;;16.20;7.20;;;;;;;11.18;50.43;102088.88;5030880;28;20049;-76
2022/04/01 08:06:30;;;;;;;14.13;6.40;;;;;;;11.56;50.33;102097.78;5058767;28;20040;-76
2022/04/01 08:08:58;;;;;;;22.52;10.30;;;;;;;12.18;48.67;102104.25;5062860;28;20115;-75
2022/04/01 08:11:30;;;;;;;8.35;3.35;;;;;;;12.93;46.94;102093.03;5059433;28;20037;-77
2022/04/01 08:13:55;;;;;;;10.18;2.58;;;;;;;13.69;40.81;102104.94;5049242;28;20037;-75
2022/04/01 08:16:22;;;;;;;9.18;1.95;;;;;;;13.48;40.07;102099.97;5031761;28;20098;-76
2022/04/01 08:18:48;;;;;;;7.50;2.05;;;;;;;13.30;39.97;102102.75;5048705;28;20456;-78
2022/04/01 08:21:15;;;;;;;7.28;1.58;;;;;;;13.30;39.44;102109.00;5037062;28;20029;-79
2022/04/01 08:23:41;;;;;;;3.10;1.63;;;;;;;13.06;39.30;102103.41;5053452;28;20119;-78
2022/04/01 08:26:07;;;;;;;1.73;1.38;;;;;;;13.13;39.45;102099.09;5054073;28;20040;-79
2022/04/01 08:28:33;;;;;;;2.38;1.30;;;;;;;13.28;39.09;102102.06;5064936;28;20040;-78
2022/04/01 08:30:59;;;;;;;3.08;1.75;;;;;;;13.45;39.15;102103.84;5047764;28;20047;-78
2022/04/01 08:33:25;;;;;;;3.78;1.60;;;;;;;13.48;39.14;102083.75;5068846;28;20032;-78
2022/04/01 08:35:51;;;;;;;5.13;1.63;;;;;;;14.04;38.65;102103.84;5069809;28;20029;-78
2022/04/01 08:38:16;;;;;;;3.88;1.98;;;;;;;14.56;37.06;102100.06;5053312;28;20035;-79
2022/04/01 08:40:42;;;;;;;1.80;1.50;;;;;;;14.98;35.73;102099.00;5070375;28;20119;-79
2022/04/01 08:43:09;;;;;;;4.13;1.80;;;;;;;14.76;34.83;102097.84;5068365;28;20032;-78
2022/04/01 08:45:37;;;;;;;2.40;1.70;;;;;;;14.39;35.57;102088.34;5048667;28;20045;-78
2022/04/01 08:48:10;;;;;;;3.50;1.48;;;;;;;14.73;36.05;102105.28;5050455;28;20040;-79
2022/04/01 08:50:36;;;;;;;3.85;1.83;;;;;;;14.98;36.06;102093.56;5043196;28;20131;-79
2022/04/01 08:53:02;;;;;;;3.17;1.50;;;;;;;15.84;33.83;102106.34;5034156;28;20339;-78
2022/04/01 08:55:28;;;;;;;4.60;1.70;;;;;;;16.47;34.18;102105.25;5048667;28;20368;-79
2022/04/01 08:57:53;;;;;;;5.40;2.20;;;;;;;16.07;32.50;102076.56;5083175;28;20547;-79
2022/04/01 09:00:19;;;;;;;4.82;1.80;;;;;;;16.19;31.77;102093.25;5048519;28;20047;-78
2022/04/01 09:03:00;;;;;;;4.97;2.00;;;;;;;16.43;32.53;102097.66;5060654;28;20038;-78
2022/04/01 09:05:26;;;;;;;4.22;1.63;;;;;;;16.22;32.39;102088.31;5027183;28;20474;-79
2022/04/01 09:08:03;;;;;;;6.38;2.47;;;;;;;16.41;31.21;102078.84;5032538;28;20059;-78
2022/04/01 09:10:29;;;;;;;8.55;2.15;;;;;;;16.57;31.71;102087.88;5037617;28;20040;-79
2022/04/01 09:12:55;;;;;;;2.53;1.55;;;;;;;16.89;30.49;102089.47;5064020;28;20028;-79
2022/04/01 09:15:21;;;;;;;7.25;1.90;;;;;;;17.10;30.61;102091.47;5051782;28;20036;-79
2022/04/01 09:17:49;;;;;;;5.22;2.13;;;;;;;17.04;29.63;102084.91;5098516;28;20501;-79
2022/04/01 09:20:15;;;;;;;7.47;2.67;;;;;;;17.22;28.53;102091.84;5067749;28;20466;-79
2022/04/01 09:22:43;;;;;;;3.22;1.98;;;;;;;17.37;29.69;102089.97;5049332;28;20497;-79
2022/04/01 09:25:14;;;;;;;5.05;2.13;;;;;;;17.20;30.20;102099.31;5055125;28;20033;-79
2022/04/01 09:27:49;;;;;;;8.50;3.10;;;;;;;17.87;30.39;102088.31;5053297;28;20450;-79
2022/04/01 09:30:31;;;;;;;7.10;1.83;;;;;;;18.26;28.31;102097.09;5044051;28;20488;-79
2022/04/01 09:33:05;;;;;;;6.20;2.10;;;;;;;18.36;27.82;102094.91;5051087;28;20119;-79
2022/04/01 09:35:32;;;;;;;7.45;1.85;;;;;;;17.96;27.49;102100.75;5037022;28;20040;-79
2022/04/01 09:38:01;;;;;;;3.88;1.83;;;;;;;18.18;28.53;102088.03;5064365;28;20032;-79
2022/04/01 09:40:35;;;;;;;9.48;2.53;;;;;;;18.12;27.60;102096.13;5069120;28;20041;-79
2022/04/01 09:43:01;;;;;;;11.07;2.47;;;;;;;18.63;27.90;102099.56;5053272;28;20371;-80
2022/04/01 09:45:35;;;;;;;4.75;1.90;;;;;;;16.46;30.69;102090.00;5034677;28;20041;-80
2022/04/01 09:48:07;;;;;;;21.63;2.63;;;;;;;18.28;27.62;102081.41;5053139;28;20111;-79
2022/04/01 09:50:41;;;;;;;8.93;3.38;;;;;;;18.60;27.23;102104.53;5028418;28;20036;-79
2022/04/01 09:53:28;;;;;;;7.30;2.15;;;;;;;18.92;26.61;102092.28;5085445;28;20032;-79
2022/04/01 09:56:00;;;;;;;6.22;1.95;;;;;;;18.63;27.84;102104.16;5053240;28;20063;-80
2022/04/01 09:58:26;;;;;;;4.18;2.03;;;;;;;15.82;30.97;102093.00;5049384;28;20036;-79
2022/04/01 10:00:56;;;;;;;13.00;3.28;;;;;;;15.51;32.28;102097.50;5048865;28;20028;-80
2022/04/01 10:03:22;;;;;;;8.82;2.20;;;;;;;15.52;32.65;102101.91;5051537;28;20031;-79
2022/04/01 10:05:51;;;;;;;1.73;1.13;;;;;;;14.03;32.98;102108.44;5037112;28;20103;-80
2022/04/01 10:08:27;;;;;;;3.45;1.63;;;;;;;11.23;36.46;102073.13;5065124;28;20040;-79
2022/04/01 10:10:53;;;;;;;3.40;2.22;;;;;;;14.33;34.21;102113.38;5034625;28;20036;-79
2022/04/01 10:13:30;;;;;;;20.00;3.00;;;;;;;16.21;30.40;102118.34;5059508;28;20474;-79
2022/04/01 10:15:57;;;;;;;6.38;1.90;;;;;;;16.32;29.40;102126.06;5040766;28;20173;-79
2022/04/01 10:18:23;;;;;;;5.50;1.60;;;;;;;12.91;34.97;102104.00;5054807;28;20040;-79
2022/04/01 10:20:53;;;;;;;15.75;4.15;;;;;;;13.09;34.75;102068.84;5065548;28;20040;-79
2022/04/01 10:23:21;;;;;;;3.92;1.80;;;;;;;14.06;32.67;102137.84;5057653;28;20037;-79
2022/04/01 10:25:49;;;;;;;3.92;2.15;;;;;;;16.25;29.67;102136.81;5052253;28;20035;-78
2022/04/01 10:28:16;;;;;;;2.30;1.63;;;;;;;17.94;26.03;102123.75;5067982;28;20043;-79
2022/04/01 10:31:00;;;;;;;13.20;3.03;;;;;;;18.87;24.62;102128.28;5034479;28;20044;-79
2022/04/01 10:33:33;;;;;;;4.90;2.40;;;;;;;19.16;23.79;102122.81;5051064;28;20029;-79
2022/04/01 10:35:59;;;;;;;;;;;;;;;18.55;26.01;102126.06;5053174;28;20025;-79
2022/04/01 10:38:31;;;;;;;6.32;2.20;;;;;;;19.02;25.33;102125.44;5060727;28;19923;-79
2022/04/01 10:41:12;;;;;;;6.95;2.65;;;;;;;19.15;25.12;102124.69;5050268;28;20473;-79
2022/04/01 10:43:43;;;;;;;2.85;1.85;;;;;;;18.70;25.22;102110.50;5063662;28;20032;-79
2022/04/01 10:46:16;;;;;;;4.82;1.40;;;;;;;16.83;27.52;102114.63;5059918;28;20048;-79
2022/04/01 10:52:06;;;;;;;7.70;2.85;;;;;;;18.56;24.74;102114.16;5076361;28;20091;-80
2022/04/01 10:54:32;;;;;;;2.58;1.85;;;;;;;19.19;25.77;102108.81;5049756;28;20254;-79
2022/04/01 10:57:01;;;;;;;2.67;2.47;;;;;;;19.66;24.44;102102.59;5053243;28;20123;-79
2022/04/01 10:59:28;;;;;;;5.30;1.80;;;;;;;19.68;24.49;102089.56;5039368;28;20123;-79
2022/04/01 11:01:53;;;;;;;2.78;1.48;;;;;;;20.21;24.00;102084.25;5036519;28;20381;-79
2022/04/01 11:04:19;;;;;;;2.05;1.60;;;;;;;19.51;23.86;102089.03;5073850;28;20024;-79
2022/04/01 11:07:14;;;;;;;3.10;1.88;;;;;;;19.11;24.71;102091.56;5072966;28;20354;-79
2022/04/01 11:10:04;;;;;;;4.75;2.10;;;;;;;19.08;25.10;102091.13;5068013;28;20043;-75
2022/04/01 11:12:42;;;;;;;3.08;1.95;;;;;;;19.36;26.25;102093.78;5050349;28;20036;-76
2022/04/01 11:15:09;;;;;;;2.70;1.45;;;;;;;20.01;24.57;102107.13;5063755;28;20044;-76
2022/04/01 11:17:35;;;;;;;3.85;1.67;;;;;;;17.09;27.79;102092.47;5054745;28;20025;-79
2022/04/01 11:20:12;;;;;;;10.52;2.08;;;;;;;16.37;28.96;102098.38;5068970;28;20070;-75
2022/04/01 11:22:46;;;;;;;5.35;1.67;;;;;;;16.53;29.95;102094.69;5045235;28;20402;-75
2022/04/01 11:25:32;;;;;;;3.97;1.70;;;;;;;18.02;26.19;102091.84;5046746;28;20029;-75
2022/04/01 11:28:05;;;;;;;5.68;1.80;;;;;;;18.94;23.42;102089.34;5053015;28;20124;-76
2022/04/01 11:30:34;;;;;;;3.60;1.98;;;;;;;19.53;23.46;102084.22;5048467;28;20036;-75
2022/04/01 11:33:06;;;;;;;5.65;2.40;;;;;;;19.93;23.54;102081.69;5066158;28;20040;-76
2022/04/01 11:35:36;;;;;;;5.40;2.10;;;;;;;20.78;23.18;102082.00;5051461;28;20029;-75
2022/04/01 11:38:02;;;;;;;3.15;1.77;;;;;;;21.22;22.53;102076.84;5069041;28;20032;-75
2022/04/01 11:40:30;;;;;;;2.33;1.60;;;;;;;21.82;21.05;102082.13;5037977;28;20055;-75
2022/04/01 11:43:07;;;;;;;2.13;1.60;;;;;;;22.10;20.98;102081.78;5047101;28;20499;-76